Time;durP1;ratioP1;P1;durP2;ratioP2;P2;SDS_P1;SDS_P2;PMS_P1;PMS_P2;Temp;Humidity;BMP_temperature;BMP_pressure;BME280_temperature;BME280_humidity;BME280_pressure;Samples;Min_cycle;Max_cycle;Signal;HPM_P1;HPM_P2
2023/04/04 00:02:08;;;;;;;;;5.25;5.25;;;;;10.57;43.62;102033.72;5065975;28;45276;-63
2023/04/04 00:04:33;;;;;;;;;7.50;6.50;;;;;10.53;43.61;102030.19;5080323;28;45216;-63
2023/04/04 00:06:59;;;;;;;;;6.75;6.75;;;;;10.51;43.75;102033.66;5080025;28;51686;-63
2023/04/04 00:09:24;;;;;;;;;7.50;7.50;;;;;10.48;43.59;102026.66;5061657;28;45356;-63
2023/04/04 00:11:50;;;;;;;;;7.25;6.00;;;;;10.45;43.73;102029.22;5079170;28;45286;-63
2023/04/04 00:14:16;;;;;;;;;6.00;6.00;;;;;10.45;43.42;102031.00;5080098;28;45533;-63
2023/04/04 00:16:41;;;;;;;;;8.75;6.75;;;;;10.43;43.51;102033.63;5080009;28;45194;-63
2023/04/04 00:19:06;;;;;;;;;4.75;4.75;;;;;10.40;43.42;102038.84;5079950;28;45394;-63
2023/04/04 00:21:31;;;;;;;;;7.00;4.25;;;;;10.36;43.45;102032.72;5080131;28;45170;-63
2023/04/04 00:23:57;;;;;;;;;8.00;6.50;;;;;10.35;43.39;102040.53;5079746;28;45228;-63
2023/04/04 00:26:23;;;;;;;;;4.50;4.50;;;;;10.33;43.43;102039.66;5079842;28;45878;-63
2023/04/04 00:28:48;;;;;;;;;5.50;5.00;;;;;10.31;43.63;102044.88;5079783;28;45308;-63
2023/04/04 00:31:14;;;;;;;;;7.75;7.00;;;;;10.28;43.59;102041.38;5080087;28;45363;-63
2023/04/04 00:33:40;;;;;;;;;8.25;7.00;;;;;10.25;43.40;102043.09;5079873;28;45414;-63
2023/04/04 00:36:06;;;;;;;;;6.75;6.75;;;;;10.24;43.46;102043.09;5074157;28;45877;-63
2023/04/04 00:38:31;;;;;;;;;7.00;6.00;;;;;10.22;43.44;102044.81;5059368;28;45277;-63
2023/04/04 00:40:57;;;;;;;;;5.50;5.25;;;;;10.21;43.61;102050.94;5059481;28;45214;-63
2023/04/04 00:43:22;;;;;;;;;4.50;4.50;;;;;10.18;43.46;102045.66;5059546;28;45373;-63
2023/04/04 00:45:50;;;;;;;;;6.00;6.00;;;;;10.16;43.45;102042.13;5059230;28;48873;-63
2023/04/04 00:48:16;;;;;;;;;7.50;6.75;;;;;10.14;43.48;102042.13;5059452;28;45258;-63
2023/04/04 00:50:41;;;;;;;;;6.00;6.00;;;;;10.12;43.50;102037.72;5058895;28;45233;-63
2023/04/04 00:53:07;;;;;;;;;6.00;6.00;;;;;10.09;43.63;102043.84;5059137;28;45270;-63
2023/04/04 00:55:32;;;;;;;;;6.75;6.00;;;;;10.06;43.63;102039.44;5041277;28;47488;-63
2023/04/04 00:57:59;;;;;;;;;7.00;7.00;;;;;9.97;43.31;102023.59;5059427;28;45274;-63
2023/04/04 01:00:25;;;;;;;;;6.00;6.00;;;;;10.03;43.38;102038.53;5059345;28;45307;-63
2023/04/04 01:02:50;;;;;;;;;6.00;6.00;;;;;10.01;43.43;102037.63;5071337;28;45524;-63
2023/04/04 01:05:15;;;;;;;;;9.00;7.25;;;;;9.98;43.46;102037.59;5060979;28;46945;-63
2023/04/04 01:07:41;;;;;;;;;7.75;5.75;;;;;9.94;43.36;102031.44;5079373;28;45343;-63
2023/04/04 01:10:07;;;;;;;;;6.50;6.50;;;;;9.95;43.46;102032.31;5061237;28;45533;-63
2023/04/04 01:12:34;;;;;;;;;6.00;6.00;;;;;9.92;43.58;102018.31;5079447;28;45472;-63
2023/04/04 01:14:59;;;;;;;;;7.00;7.00;;;;;9.90;43.49;102021.78;5079176;28;46583;-63
2023/04/04 01:17:26;;;;;;;;;7.50;7.50;;;;;9.87;43.51;102017.41;5079448;28;45217;-63
2023/04/04 01:20:14;;;;;;;;;6.25;6.25;;;;;9.85;43.29;102016.47;5079365;28;45426;-63
2023/04/04 01:22:42;;;;;;;;;9.00;7.75;;;;;9.83;43.41;102012.94;5079377;28;45276;-63
2023/04/04 01:25:08;;;;;;;;;6.75;6.00;;;;;9.78;43.50;102004.16;5082563;28;46954;-63
2023/04/04 01:27:33;;;;;;;;;7.50;5.75;;;;;9.77;43.71;102005.03;5082559;28;45517;-63
2023/04/04 01:29:59;;;;;;;;;7.00;7.00;;;;;9.78;43.46;102008.53;5082797;28;45413;-62
2023/04/04 01:32:59;;;;;;;;;5.75;5.75;;;;;9.74;43.55;102008.50;5082564;28;45360;-63
2023/04/04 01:35:55;;;;;;;;;6.50;5.75;;;;;9.71;43.57;102018.97;5045774;28;46965;-63
2023/04/04 01:38:40;;;;;;;;;7.25;6.25;;;;;9.68;43.59;102021.56;5062243;28;45371;-63
2023/04/04 01:41:08;;;;;;;;;8.75;7.75;;;;;9.65;43.33;102025.91;5062059;28;45385;-63
2023/04/04 01:43:33;;;;;;;;;9.50;7.75;;;;;9.63;43.58;102018.00;5062085;28;45182;-62
2023/04/04 01:45:59;;;;;;;;;7.25;7.25;;;;;9.62;43.52;102012.75;5061805;28;47679;-62
2023/04/04 01:48:25;;;;;;;;;6.25;6.25;;;;;9.59;43.37;102024.09;5062151;28;45194;-63
2023/04/04 01:50:51;;;;;;;;;11.00;8.25;;;;;9.58;43.59;102022.34;5061952;28;45451;-63
2023/04/04 01:53:16;;;;;;;;;6.50;6.50;;;;;9.57;43.23;102031.06;5043732;28;45544;-63
2023/04/04 01:55:42;;;;;;;;;3.25;3.00;;;;;9.54;43.65;102033.69;5061713;28;45272;-63
2023/04/04 01:58:08;;;;;;;;;9.25;7.75;;;;;9.51;43.52;102025.75;5061956;28;45473;-63
2023/04/04 02:00:33;;;;;;;;;9.25;7.25;;;;;9.46;43.59;102028.34;5061886;28;45387;-63
2023/04/04 02:02:59;;;;;;;;;9.50;8.25;;;;;9.49;43.78;102027.50;5075235;28;45241;-63
2023/04/04 02:05:24;;;;;;;;;12.75;12.25;;;;;9.47;43.69;102034.47;5061808;28;46808;-63
2023/04/04 02:07:50;;;;;;;;;8.75;6.25;;;;;9.45;43.44;102026.59;5061565;28;45415;-63
2023/04/04 02:10:16;;;;;;;;;10.50;8.25;;;;;9.43;43.69;102021.31;5061705;28;45339;-63
2023/04/04 02:12:42;;;;;;;;;9.25;7.25;;;;;9.38;44.04;102017.78;5061604;28;45578;-63
2023/04/04 02:15:07;;;;;;;;;10.25;9.50;;;;;9.38;43.56;102024.75;5061676;28;45333;-63
2023/04/04 02:17:33;;;;;;;;;8.50;7.75;;;;;9.37;43.50;102022.97;5060760;28;45265;-63
2023/04/04 02:19:59;;;;;;;;;11.50;8.00;;;;;9.34;43.67;102015.97;5061944;28;45266;-63
2023/04/04 02:22:24;;;;;;;;;10.25;9.75;;;;;9.33;43.46;102021.19;5061326;28;45186;-63
2023/04/04 02:24:49;;;;;;;;;10.00;8.75;;;;;9.31;43.60;102018.56;5061461;28;46849;-63
2023/04/04 02:27:15;;;;;;;;;7.25;7.25;;;;;9.29;43.66;102012.41;5061476;28;45198;-63
2023/04/04 02:29:40;;;;;;;;;8.75;8.75;;;;;9.28;43.53;102018.50;5061209;28;53058;-63
2023/04/04 02:32:06;;;;;;;;;11.25;8.50;;;;;9.26;43.76;102008.00;5060998;28;52250;-63
2023/04/04 02:34:31;;;;;;;;;10.75;8.75;;;;;9.24;44.00;102006.22;5066502;28;46046;-64
2023/04/04 02:36:56;;;;;;;;;8.25;8.25;;;;;9.22;43.69;102008.84;5067604;28;45270;-63
2023/04/04 02:39:22;;;;;;;;;10.50;9.25;;;;;9.21;43.91;102008.81;5061357;28;45170;-63
2023/04/04 02:41:47;;;;;;;;;7.25;7.25;;;;;9.19;43.80;102018.41;5061175;28;45479;-63
2023/04/04 02:44:12;;;;;;;;;13.00;10.50;;;;;9.17;43.73;102012.25;5061250;28;45930;-63
2023/04/04 02:46:38;;;;;;;;;7.00;7.00;;;;;9.15;43.75;102011.38;5060118;28;57863;-63
2023/04/04 02:49:03;;;;;;;;;12.75;11.25;;;;;9.11;43.61;102006.06;5060846;28;45261;-63
2023/04/04 02:51:29;;;;;;;;;9.00;9.00;;;;;9.09;43.69;102007.81;5060255;28;45337;-63
2023/04/04 02:53:54;;;;;;;;;9.25;9.25;;;;;9.07;44.14;102006.91;5060119;28;47202;-63
2023/04/04 02:56:20;;;;;;;;;11.75;8.50;;;;;9.06;43.84;101999.91;5060476;28;45447;-63
2023/04/04 02:58:45;;;;;;;;;7.00;7.00;;;;;9.04;43.91;101993.78;5060466;28;45294;-63
2023/04/04 03:01:11;;;;;;;;;10.25;9.50;;;;;9.01;43.94;101993.72;5060391;28;45328;-63
2023/04/04 03:03:36;;;;;;;;;11.50;10.25;;;;;8.99;43.80;101987.56;5078946;28;46293;-63
2023/04/04 03:06:02;;;;;;;;;12.00;9.50;;;;;8.97;43.91;101989.31;5081151;28;45319;-63
2023/04/04 03:08:27;;;;;;;;;11.25;9.50;;;;;8.97;44.00;102001.53;5062648;28;45687;-62
2023/04/04 03:10:52;;;;;;;;;15.00;12.75;;;;;8.94;43.93;101997.13;5080965;28;45268;-63
2023/04/04 03:13:18;;;;;;;;;8.00;8.00;;;;;8.90;44.33;101990.09;5075322;28;53789;-63
2023/04/04 03:15:43;;;;;;;;;9.75;7.75;;;;;8.85;43.95;101987.41;5060564;28;52903;-63
2023/04/04 03:18:09;;;;;;;;;11.75;9.75;;;;;8.85;44.03;101992.63;5060656;28;45289;-63
2023/04/04 03:20:34;;;;;;;;;10.75;10.75;;;;;8.81;43.88;101993.47;5060638;28;45408;-63
2023/04/04 03:22:59;;;;;;;;;12.25;11.50;;;;;8.80;43.84;101989.06;5059860;28;53840;-63
2023/04/04 03:25:25;;;;;;;;;12.00;8.25;;;;;8.78;44.07;101994.31;5042276;28;45434;-63
2023/04/04 03:27:50;;;;;;;;;9.00;7.00;;;;;8.75;43.97;101989.03;5060539;28;45258;-63
2023/04/04 03:30:16;;;;;;;;;10.50;9.50;;;;;8.71;44.05;101988.97;5060456;28;45233;-63
2023/04/04 03:32:41;;;;;;;;;10.50;10.50;;;;;8.71;44.00;101989.84;5060176;28;46201;-63
2023/04/04 03:35:07;;;;;;;;;9.75;7.00;;;;;8.68;44.05;101981.94;5070826;28;45421;-63
2023/04/04 03:37:32;;;;;;;;;11.00;9.25;;;;;8.60;43.94;101983.56;5062967;28;45332;-63
2023/04/04 03:39:58;;;;;;;;;12.25;11.00;;;;;8.66;44.23;101999.38;5060179;28;45479;-63
2023/04/04 03:42:25;;;;;;;;;5.00;3.75;;;;;8.64;44.25;101993.25;5060179;28;45434;-63
2023/04/04 03:44:52;;;;;;;;;9.75;6.75;;;;;8.62;43.75;101992.34;5059912;28;45328;-63
2023/04/04 03:47:17;;;;;;;;;11.75;11.50;;;;;8.60;44.17;101988.81;5058990;28;45248;-63
2023/04/04 03:49:43;;;;;;;;;7.75;7.50;;;;;8.54;43.97;101994.88;5041225;28;45482;-64
2023/04/04 03:52:08;;;;;;;;;23.00;21.50;;;;;8.53;43.92;101997.44;5040996;28;48187;-63
2023/04/04 03:54:33;;;;;;;;;16.25;14.00;;;;;8.52;44.03;101999.19;5041315;28;45270;-63
2023/04/04 03:56:59;;;;;;;;;7.00;7.00;;;;;8.49;44.22;102003.50;5059531;28;45273;-63
2023/04/04 03:59:24;;;;;;;;;12.00;10.25;;;;;8.47;44.19;101998.25;5059311;28;45242;-63
2023/04/04 04:01:49;;;;;;;;;11.50;8.75;;;;;8.45;44.24;102000.81;5062501;28;54980;-63
2023/04/04 04:04:15;;;;;;;;;13.25;12.75;;;;;8.43;44.38;101993.78;5079893;28;45160;-63
2023/04/04 04:06:40;;;;;;;;;6.50;6.50;;;;;8.39;44.30;102000.72;5080259;28;45285;-64
2023/04/04 04:09:06;;;;;;;;;11.50;9.50;;;;;8.38;44.22;102006.81;5079446;28;47930;-63
2023/04/04 04:11:32;;;;;;;;;9.25;7.00;;;;;8.35;44.04;102003.25;5079511;28;46193;-63
2023/04/04 04:13:57;;;;;;;;;11.50;11.25;;;;;8.32;44.18;102011.94;5079653;28;45141;-63
2023/04/04 04:16:22;;;;;;;;;12.75;10.25;;;;;8.29;44.14;102017.16;5079406;28;45285;-63
2023/04/04 04:18:48;;;;;;;;;12.25;12.25;;;;;8.24;44.17;102009.22;5079403;28;45437;-63
2023/04/04 04:21:14;;;;;;;;;8.50;8.50;;;;;8.25;44.35;102025.81;5079228;28;46327;-66
2023/04/04 04:23:39;;;;;;;;;9.75;9.75;;;;;8.23;44.49;102028.41;5079493;28;45773;-64
2023/04/04 04:26:05;;;;;;;;;12.00;8.50;;;;;8.20;44.32;102033.59;5079220;28;45329;-63
2023/04/04 04:28:31;;;;;;;;;9.75;8.00;;;;;8.19;44.27;102046.66;5079246;28;45302;-63
2023/04/04 04:31:02;;;;;;;;;11.00;8.25;;;;;8.16;44.17;102049.22;5078923;28;46504;-63
2023/04/04 04:33:30;;;;;;;;;10.50;9.25;;;;;8.12;44.40;102036.06;5079418;28;45596;-63
2023/04/04 04:36:00;;;;;;;;;11.00;10.00;;;;;8.11;44.31;102051.75;5074492;28;45390;-63
2023/04/04 04:38:26;;;;;;;;;8.50;8.50;;;;;8.07;43.79;102048.22;5058742;28;45349;-63
2023/04/04 04:40:51;;;;;;;;;9.25;9.00;;;;;8.07;44.36;102058.69;5058211;28;45292;-63
2023/04/04 04:43:16;;;;;;;;;8.00;7.75;;;;;8.05;44.34;102052.56;5058518;28;56337;-63
2023/04/04 04:45:42;;;;;;;;;13.25;12.00;;;;;8.04;44.37;102055.16;5058758;28;45330;-63
2023/04/04 04:48:07;;;;;;;;;10.00;10.00;;;;;8.01;44.25;102048.09;5059009;28;45353;-64
2023/04/04 04:50:32;;;;;;;;;11.75;10.25;;;;;7.98;44.71;102056.78;5058082;28;50405;-64
2023/04/04 04:52:58;;;;;;;;;13.25;10.75;;;;;7.97;44.41;102056.75;5040102;28;51264;-64
2023/04/04 04:55:23;;;;;;;;;13.25;10.50;;;;;7.94;44.23;102048.88;5058414;28;46423;-63
2023/04/04 04:57:48;;;;;;;;;10.25;8.50;;;;;7.91;44.43;102056.66;5060811;28;45322;-64
2023/04/04 05:00:15;;;;;;;;;6.75;6.75;;;;;7.87;44.41;102055.72;5061911;28;46821;-63
2023/04/04 05:02:40;;;;;;;;;9.25;9.00;;;;;7.86;44.39;102059.22;5072433;28;45304;-64
2023/04/04 05:05:06;;;;;;;;;13.50;10.50;;;;;7.85;44.45;102059.16;5082190;28;45332;-64
2023/04/04 05:07:32;;;;;;;;;10.00;8.00;;;;;7.78;44.50;102053.81;5082393;28;45354;-64
2023/04/04 05:09:57;;;;;;;;;11.75;11.00;;;;;7.79;44.30;102052.97;5081834;28;46103;-64
2023/04/04 05:12:22;;;;;;;;;10.25;8.25;;;;;7.73;44.54;102052.84;5082090;28;45253;-63
2023/04/04 05:14:48;;;;;;;;;7.50;5.75;;;;;7.50;44.47;102015.81;5063950;28;45237;-64
2023/04/04 05:17:13;;;;;;;;;10.50;9.25;;;;;7.71;44.34;102053.66;5082272;28;45236;-67
2023/04/04 05:19:38;;;;;;;;;9.75;9.50;;;;;7.69;44.59;102052.78;5081983;28;46218;-67
2023/04/04 05:22:06;;;;;;;;;11.25;9.25;;;;;7.64;44.35;102048.31;5081798;28;45364;-67
2023/04/04 05:24:31;;;;;;;;;10.75;10.75;;;;;7.63;44.39;102045.69;5078456;28;45394;-66
2023/04/04 05:26:57;;;;;;;;;14.00;9.00;;;;;7.61;44.56;102043.03;5068069;28;45530;-67
2023/04/04 05:29:22;;;;;;;;;27.00;26.00;;;;;7.59;44.50;102042.13;5059446;28;57952;-67
2023/04/04 05:31:47;;;;;;;;;22.00;19.25;;;;;7.58;44.39;102044.72;5060484;28;51335;-67
2023/04/04 05:34:12;;;;;;;;;13.00;12.25;;;;;7.54;44.40;102029.81;5064347;28;45220;-67
2023/04/04 05:36:38;;;;;;;;;19.00;18.25;;;;;7.54;44.52;102024.59;5071738;28;46434;-67
2023/04/04 05:39:06;;;;;;;;;12.00;10.75;;;;;7.51;44.35;102032.38;5060605;28;59808;-67
2023/04/04 05:41:32;;;;;;;;;12.75;10.75;;;;;7.49;44.91;102025.38;5061058;28;45510;-69
2023/04/04 05:43:58;;;;;;;;;12.50;11.75;;;;;7.49;44.54;102030.59;5061427;28;45374;-67
2023/04/04 05:46:23;;;;;;;;;10.75;10.00;;;;;7.48;44.44;102031.47;5061606;28;45271;-67
2023/04/04 05:48:49;;;;;;;;;10.25;10.00;;;;;7.47;44.42;102034.03;5061197;28;45300;-65
2023/04/04 05:51:15;;;;;;;;;10.25;8.25;;;;;7.41;44.63;102040.03;5067473;27;45242;-68
2023/04/04 05:53:41;;;;;;;;;11.50;11.50;;;;;7.43;44.44;102047.91;5072707;27;45328;-71
2023/04/04 05:56:06;;;;;;;;;10.25;9.25;;;;;7.41;44.54;102047.91;5054359;28;45296;-70
2023/04/04 05:58:31;;;;;;;;;8.75;8.75;;;;;7.38;44.58;102053.03;5058663;28;47063;-66
2023/04/04 06:00:57;;;;;;;;;9.50;7.75;;;;;7.40;44.59;102061.81;5071903;27;45366;-66
2023/04/04 06:03:22;;;;;;;;;14.25;9.75;;;;;7.40;44.75;102058.34;5069327;28;45523;-66
2023/04/04 06:05:51;;;;;;;;;12.25;10.50;;;;;7.37;44.45;102053.03;5074439;28;45387;-68
2023/04/04 06:08:17;;;;;;;;;10.25;10.25;;;;;7.38;44.74;102058.28;5077056;28;46643;-67
2023/04/04 06:10:42;;;;;;;;;14.00;13.00;;;;;7.37;44.59;102059.16;5067910;28;45473;-66
2023/04/04 06:13:08;;;;;;;;;26.75;23.50;;;;;7.36;44.65;102065.22;5067647;28;45440;-67
2023/04/04 06:15:33;;;;;;;;;12.25;10.50;;;;;7.36;44.64;102069.56;5074117;28;45205;-65
2023/04/04 06:17:58;;;;;;;;;12.50;9.50;;;;;7.34;44.61;102068.66;5073236;28;59467;-68
2023/04/04 06:20:24;;;;;;;;;14.25;11.75;;;;;7.32;44.68;102073.88;5067400;28;45458;-67
2023/04/04 06:22:49;;;;;;;;;9.75;9.75;;;;;7.28;44.94;102083.38;5067221;28;45220;-67
2023/04/04 06:25:15;;;;;;;;;10.00;9.50;;;;;7.29;44.70;102085.13;5078687;28;45232;-68
2023/04/04 06:27:41;;;;;;;;;10.75;10.00;;;;;7.28;44.90;102086.00;5072382;28;47140;-67
2023/04/04 06:30:07;;;;;;;;;13.25;11.75;;;;;7.27;44.95;102093.78;5068832;28;45409;-67
2023/04/04 06:32:32;;;;;;;;;8.00;7.50;;;;;7.25;44.90;102087.66;5069030;28;45553;-67
2023/04/04 06:34:58;;;;;;;;;7.75;7.50;;;;;7.24;44.74;102093.75;5072078;28;45221;-67
2023/04/04 06:37:23;;;;;;;;;10.50;10.00;;;;;7.23;44.86;102089.34;5066877;28;45933;-67
2023/04/04 06:39:48;;;;;;;;;10.25;8.50;;;;;7.23;44.78;102092.88;5050623;27;45368;-67
2023/04/04 06:42:14;;;;;;;;;9.75;9.75;;;;;7.24;44.92;102096.34;5089820;27;52269;-67
2023/04/04 06:44:39;;;;;;;;;11.00;9.25;;;;;7.20;44.90;102102.38;5072678;28;45324;-67
2023/04/04 06:47:05;;;;;;;;;12.75;9.75;;;;;7.22;44.93;102100.66;5062312;27;45824;-67
2023/04/04 06:49:30;;;;;;;;;8.25;8.00;;;;;7.22;45.00;102108.50;5043917;28;45402;-67
2023/04/04 06:51:56;;;;;;;;;10.25;9.00;;;;;7.22;45.02;102112.00;5080002;27;46457;-67
2023/04/04 06:54:22;;;;;;;;;9.00;9.00;;;;;7.24;45.01;102120.75;5079984;28;45506;-67
2023/04/04 06:56:47;;;;;;;;;16.75;11.25;;;;;7.24;44.84;102115.53;5077899;27;45515;-67
2023/04/04 06:59:12;;;;;;;;;11.50;10.00;;;;;7.23;45.16;102111.16;5066656;27;45397;-67
2023/04/04 07:01:38;;;;;;;;;9.25;7.75;;;;;7.24;44.63;102119.88;5072171;27;45584;-67
2023/04/04 07:04:03;;;;;;;;;13.00;10.00;;;;;7.28;44.84;102119.09;5073719;28;45513;-67
2023/04/04 07:06:30;;;;;;;;;9.25;9.00;;;;;7.29;44.86;102119.13;5070375;27;45208;-67
2023/04/04 07:08:55;;;;;;;;;8.00;7.50;;;;;7.28;44.92;102121.72;5073350;27;45312;-67
2023/04/04 07:11:22;;;;;;;;;6.00;6.00;;;;;7.29;44.86;102115.63;5070733;27;45270;-67
2023/04/04 07:13:48;;;;;;;;;10.50;9.00;;;;;7.34;44.82;102128.81;5073797;27;45421;-67
2023/04/04 07:16:13;;;;;;;;;7.75;6.00;;;;;7.34;45.15;102126.19;5071316;27;46416;-67
2023/04/04 07:18:39;;;;;;;;;9.00;7.25;;;;;7.34;45.04;102127.06;5073507;28;45281;-67
2023/04/04 07:21:04;;;;;;;;;8.00;7.75;;;;;7.35;44.99;102127.97;5070322;28;45538;-67
2023/04/04 07:23:30;;;;;;;;;9.50;9.00;;;;;7.36;44.88;102125.38;5073316;28;45253;-67
2023/04/04 07:25:55;;;;;;;;;6.00;6.00;;;;;7.39;44.88;102129.78;5071180;27;46203;-67
2023/04/04 07:28:21;;;;;;;;;7.00;5.50;;;;;7.39;44.72;102122.81;5073343;27;45277;-67
2023/04/04 07:30:46;;;;;;;;;9.75;7.50;;;;;7.42;45.09;102120.28;5063098;27;45519;-67
2023/04/04 07:33:12;;;;;;;;;10.00;9.00;;;;;7.45;44.77;102128.19;5084683;27;45301;-67
2023/04/04 07:35:37;;;;;;;;;8.25;6.50;;;;;7.46;44.80;102122.09;5076006;27;49012;-67
2023/04/04 07:38:03;;;;;;;;;7.50;7.50;;;;;7.47;44.75;102121.25;5079461;27;45261;-67
2023/04/04 07:40:28;;;;;;;;;9.00;6.00;;;;;7.50;44.55;102128.28;5072884;28;45363;-67
2023/04/04 07:42:53;;;;;;;;;6.00;5.00;;;;;7.45;44.94;102115.09;5071934;28;45434;-67
2023/04/04 07:45:20;;;;;;;;;9.50;7.25;;;;;7.53;44.86;102120.47;5066948;28;56238;-66
2023/04/04 07:47:46;;;;;;;;;7.75;7.75;;;;;7.53;44.86;102117.88;5071396;28;45540;-67
2023/04/04 07:50:12;;;;;;;;;9.00;9.00;;;;;7.55;44.81;102120.53;5067117;28;45437;-67
2023/04/04 07:52:38;;;;;;;;;8.00;6.50;;;;;7.58;44.87;102125.81;5079693;28;45430;-67
2023/04/04 07:55:06;;;;;;;;;11.75;9.00;;;;;7.59;44.72;102123.22;5078848;28;45485;-67
2023/04/04 07:57:31;;;;;;;;;8.50;8.50;;;;;7.64;44.78;102115.47;5077673;28;45446;-67
2023/04/04 07:59:57;;;;;;;;;7.50;7.25;;;;;7.61;45.00;102107.56;5075069;27;45391;-67
2023/04/04 08:02:22;;;;;;;;;9.50;9.25;;;;;7.69;44.89;102124.31;5079237;28;52342;-67
2023/04/04 08:04:47;;;;;;;;;8.25;6.00;;;;;7.71;44.70;102117.38;5079437;27;46281;-67
2023/04/04 08:07:12;;;;;;;;;8.50;8.50;;;;;7.76;44.70;102118.34;5079113;28;45351;-67
2023/04/04 08:09:38;;;;;;;;;7.25;7.25;;;;;7.79;44.76;102123.63;5079529;28;45436;-67
2023/04/04 08:12:05;;;;;;;;;9.50;7.25;;;;;7.76;44.62;102106.97;5079354;27;45587;-67
2023/04/04 08:14:30;;;;;;;;;9.50;9.00;;;;;7.85;45.06;102115.03;5079363;27;46287;-66
2023/04/04 08:16:56;;;;;;;;;9.25;7.25;;;;;7.87;44.54;102109.81;5076006;27;45266;-66
2023/04/04 08:19:22;;;;;;;;;7.00;7.00;;;;;7.93;44.80;102107.31;5077528;27;45245;-67
2023/04/04 08:21:47;;;;;;;;;7.25;6.50;;;;;7.98;44.57;102111.75;5067729;28;45419;-67
2023/04/04 08:24:13;;;;;;;;;11.25;7.50;;;;;8.02;44.73;102106.59;5079022;28;45220;-67
2023/04/04 08:26:38;;;;;;;;;7.00;7.00;;;;;8.06;44.63;102106.69;5069554;28;45577;-67
2023/04/04 08:29:03;;;;;;;;;6.75;6.50;;;;;8.11;44.70;102107.66;5079160;27;45295;-66
2023/04/04 08:31:29;;;;;;;;;7.00;7.00;;;;;8.14;44.72;102104.22;5086265;27;45425;-67
2023/04/04 08:33:55;;;;;;;;;8.25;7.00;;;;;8.20;44.59;102104.31;5081943;27;46019;-66
2023/04/04 08:36:21;;;;;;;;;6.50;6.00;;;;;8.26;44.60;102107.03;5075535;27;45505;-67
2023/04/04 08:38:47;;;;;;;;;7.00;7.00;;;;;8.32;44.57;102113.25;5082597;27;45343;-66
2023/04/04 08:41:14;;;;;;;;;7.00;7.00;;;;;8.36;44.48;102109.81;5082338;27;45406;-66
2023/04/04 08:43:44;;;;;;;;;9.25;7.25;;;;;8.37;44.42;102109.81;5082532;27;45466;-66
2023/04/04 08:46:11;;;;;;;;;16.50;12.00;;;;;8.46;44.61;102111.75;5082508;28;45494;-67
2023/04/04 08:48:38;;;;;;;;;6.00;6.00;;;;;8.53;44.78;102113.63;5082387;27;45454;-67
2023/04/04 08:51:03;;;;;;;;;7.50;6.50;;;;;8.57;44.49;102117.19;5077394;27;45299;-66
2023/04/04 08:53:33;;;;;;;;;9.50;8.75;;;;;8.65;44.70;102119.91;5082108;27;45269;-67
2023/04/04 08:55:59;;;;;;;;;7.00;6.00;;;;;8.70;44.79;102113.00;5082411;27;45329;-67
2023/04/04 08:58:25;;;;;;;;;8.25;7.00;;;;;8.75;44.42;102120.09;5076038;28;45422;-66
2023/04/04 09:00:54;;;;;;;;;10.50;6.50;;;;;8.80;44.63;102120.16;5082238;27;45339;-66
2023/04/04 09:03:28;;;;;;;;;8.50;7.75;;;;;8.87;44.57;102122.00;5082178;27;46199;-66
2023/04/04 09:05:54;;;;;;;;;7.00;7.00;;;;;8.94;44.61;102130.84;5082009;28;45330;-67
2023/04/04 09:08:22;;;;;;;;;6.25;6.25;;;;;9.01;44.42;102123.97;5082098;27;45249;-66
2023/04/04 09:10:48;;;;;;;;;10.50;8.75;;;;;9.08;44.56;102128.41;5081179;27;45260;-66
2023/04/04 09:13:13;;;;;;;;;7.25;5.75;;;;;9.15;44.34;102126.78;5081835;27;46133;-66
2023/04/04 09:15:42;;;;;;;;;7.25;7.25;;;;;9.18;44.52;102113.69;5082218;27;45344;-66
2023/04/04 09:18:08;;;;;;;;;9.25;7.00;;;;;9.29;44.59;102112.09;5082222;27;45498;-67
2023/04/04 09:20:35;;;;;;;;;6.50;5.25;;;;;9.34;44.69;102105.16;5081846;28;45307;-67
2023/04/04 09:23:03;;;;;;;;;8.00;8.00;;;;;9.44;44.73;102112.28;5081593;27;46283;-67
2023/04/04 09:25:29;;;;;;;;;10.00;8.00;;;;;9.51;44.43;102112.34;5081705;28;45378;-67
2023/04/04 09:27:56;;;;;;;;;7.75;7.75;;;;;9.62;44.68;102120.38;5078944;27;45284;-66
2023/04/04 09:30:22;;;;;;;;;9.00;7.75;;;;;9.69;44.40;102116.97;5074875;27;45354;-66
2023/04/04 09:32:47;;;;;;;;;10.50;6.75;;;;;9.76;44.55;102122.28;5086635;27;45582;-66
2023/04/04 09:35:14;;;;;;;;;6.00;5.00;;;;;9.87;44.49;102111.00;5064282;28;45463;-66
2023/04/04 09:37:40;;;;;;;;;8.00;6.75;;;;;9.99;44.46;102124.28;5081663;27;45297;-66
2023/04/04 09:40:08;;;;;;;;;6.25;6.25;;;;;10.12;44.60;102101.63;5081640;28;45459;-66
2023/04/04 09:42:34;;;;;;;;;7.00;6.00;;;;;10.25;44.68;102105.25;5063297;28;46433;-66
2023/04/04 09:45:01;;;;;;;;;8.00;8.00;;;;;10.40;44.68;102117.69;5071537;27;45329;-66
2023/04/04 09:47:32;;;;;;;;;11.00;8.75;;;;;10.50;44.69;102097.59;5081785;27;45416;-66
2023/04/04 09:50:03;;;;;;;;;8.50;8.50;;;;;10.78;44.88;102105.69;5069407;28;45245;-66
2023/04/04 09:52:37;;;;;;;;;6.75;6.75;;;;;10.97;44.80;102104.94;5073276;28;47256;-66
2023/04/04 09:55:05;;;;;;;;;7.75;7.00;;;;;11.24;44.87;102098.06;5081296;27;45486;-66
2023/04/04 09:57:32;;;;;;;;;7.25;6.00;;;;;11.52;45.09;102106.06;5080082;27;45268;-66
2023/04/04 10:00:02;;;;;;;;;9.00;7.00;;;;;11.78;45.29;102092.13;5076826;27;45463;-66
2023/04/04 10:02:30;;;;;;;;;8.50;6.50;;;;;12.11;45.32;102098.34;5081254;28;47350;-66
2023/04/04 10:04:56;;;;;;;;;5.25;2.25;;;;;12.40;45.32;102101.03;5081100;28;45303;-66
2023/04/04 10:07:27;;;;;;;;;6.25;6.25;;;;;12.67;45.28;102096.59;5081138;28;45256;-66
2023/04/04 10:09:53;;;;;;;;;6.00;6.00;;;;;12.94;45.21;102100.06;5081087;28;45392;-66
2023/04/04 10:12:24;;;;;;;;;7.00;6.75;;;;;13.17;45.33;102092.09;5074541;27;46072;-66
2023/04/04 10:14:57;;;;;;;;;7.25;7.25;;;;;13.41;45.05;102106.97;5079647;27;45375;-66
2023/04/04 10:17:24;;;;;;;;;8.00;6.75;;;;;13.60;45.18;102110.41;5081351;27;45292;-66
2023/04/04 10:19:51;;;;;;;;;5.25;4.25;;;;;13.76;45.17;102103.28;5080822;28;45458;-66
2023/04/04 10:22:18;;;;;;;;;9.25;8.00;;;;;13.91;44.85;102104.06;5080675;27;45436;-66
2023/04/04 10:24:44;;;;;;;;;8.00;7.00;;;;;14.06;44.89;102100.44;5081114;27;45367;-66
2023/04/04 10:27:09;;;;;;;;;7.25;6.25;;;;;14.18;44.64;102097.72;5081266;28;45398;-66
2023/04/04 10:29:35;;;;;;;;;8.25;7.75;;;;;14.30;44.39;102092.34;5080971;28;45241;-66
2023/04/04 10:32:04;;;;;;;;;8.25;8.25;;;;;14.46;44.18;102097.47;5083813;27;46127;-66
2023/04/04 10:34:41;;;;;;;;;7.75;6.00;;;;;14.64;44.39;102093.81;5083521;27;45374;-66
2023/04/04 10:37:19;;;;;;;;;8.75;8.00;;;;;14.85;44.26;102090.06;5055865;28;45459;-66
2023/04/04 10:39:51;;;;;;;;;7.00;6.75;;;;;15.06;44.65;102088.97;5080117;27;45529;-66
2023/04/04 10:42:18;;;;;;;;;9.25;7.75;;;;;15.28;44.32;102086.94;5062718;28;46142;-66
2023/04/04 10:44:44;;;;;;;;;7.50;6.00;;;;;15.51;44.39;102103.41;5077910;28;45506;-66
2023/04/04 10:47:15;;;;;;;;;7.25;7.25;;;;;15.77;44.08;102089.81;5070710;28;45233;-66
2023/04/04 10:49:45;;;;;;;;;6.25;6.25;;;;;16.03;44.61;102092.09;5078158;27;45342;-66
2023/04/04 10:52:18;;;;;;;;;7.00;5.50;;;;;16.31;44.37;102096.09;5052680;28;47446;-67
2023/04/04 10:54:45;;;;;;;;;6.00;6.00;;;;;16.56;44.31;102091.25;5063122;28;45356;-66
2023/04/04 10:57:13;;;;;;;;;8.25;6.50;;;;;16.87;44.24;102088.03;5060979;28;45395;-67
2023/04/04 11:00:17;;;;;;;;;6.50;6.50;;;;;17.23;44.29;102085.56;5076050;28;45404;-67
2023/04/04 11:02:51;;;;;;;;;4.00;4.00;;;;;17.55;44.35;102084.88;4972413;28;45307;-67
2023/04/04 11:05:19;;;;;;;;;7.00;7.00;;;;;17.86;44.44;102080.63;5060062;28;45324;-67
2023/04/04 11:07:45;;;;;;;;;10.75;6.75;;;;;18.16;44.34;102068.44;5062531;28;45461;-66
2023/04/04 11:10:20;;;;;;;;;10.50;7.50;;;;;18.54;44.58;102078.13;5060428;28;45422;-66
2023/04/04 11:12:53;;;;;;;;;6.50;6.50;;;;;18.90;44.33;102075.38;5072332;27;45367;-66
2023/04/04 11:15:20;;;;;;;;;6.00;6.00;;;;;19.24;44.49;102077.09;5087168;27;45299;-66
2023/04/04 11:17:55;;;;;;;;;6.75;6.75;;;;;19.58;44.40;102070.75;5060959;28;45368;-66
2023/04/04 11:20:29;;;;;;;;;5.25;5.25;;;;;19.88;43.89;102066.25;5060331;28;45328;-66
2023/04/04 11:23:21;;;;;;;;;6.75;6.50;;;;;20.23;43.86;102063.38;5060093;28;46362;-66
2023/04/04 11:25:55;;;;;;;;;5.00;5.00;;;;;20.52;43.63;102054.34;5067065;28;45245;-66